Time;durP1;ratioP1;P1;durP2;ratioP2;P2;SDS_P1;SDS_P2;PMS_P1;PMS_P2;Temp;Humidity;BMP_temperature;BMP_pressure;BME280_temperature;BME280_humidity;BME280_pressure;Samples;Min_cycle;Max_cycle;Signal;HPM_P1;HPM_P2
2023/02/02 00:01:17;;;;;;;4.83;1.70;;;;;;;4.23;82.11;100786.66;5033132;28;20235;-80
2023/02/02 00:03:43;;;;;;;8.00;2.37;;;;;;;4.23;81.47;100774.59;5034041;28;20202;-81
2023/02/02 00:06:10;;;;;;;10.90;2.33;;;;;;;4.22;82.32;100808.16;5033794;28;20282;-81
2023/02/02 00:08:37;;;;;;;6.50;2.10;;;;;;;4.23;82.54;100787.50;5033413;28;20647;-80
2023/02/02 00:11:04;;;;;;;12.13;3.00;;;;;;;4.38;81.49;100798.03;5033120;28;20257;-78
2023/02/02 00:13:30;;;;;;;10.53;2.20;;;;;;;4.30;81.54;100803.94;5033502;28;20206;-81
2023/02/02 00:15:57;;;;;;;10.73;1.80;;;;;;;4.25;81.65;100783.22;5033666;28;20649;-81
2023/02/02 00:18:24;;;;;;;8.20;2.27;;;;;;;4.31;81.25;100785.88;5033848;28;20211;-82
2023/02/02 00:20:51;;;;;;;8.20;2.47;;;;;;;4.34;81.03;100800.53;5032928;28;20256;-79
2023/02/02 00:23:17;;;;;;;9.40;1.97;;;;;;;4.28;81.58;100813.41;5033214;28;20202;-80
2023/02/02 00:25:44;;;;;;;9.87;2.33;;;;;;;4.36;80.25;100829.84;5033132;28;20790;-79
2023/02/02 00:28:10;;;;;;;5.37;2.43;;;;;;;4.38;80.89;100833.38;5033462;28;20202;-80
2023/02/02 00:30:36;;;;;;;8.93;2.17;;;;;;;4.26;81.91;100815.09;5034131;28;20210;-80
2023/02/02 00:33:04;;;;;;;5.63;1.83;;;;;;;4.18;82.91;100796.91;5036733;28;20207;-79
2023/02/02 00:35:30;;;;;;;13.50;2.10;;;;;;;4.30;82.75;100778.09;5036310;28;20226;-79
2023/02/02 00:37:57;;;;;;;9.33;2.27;;;;;;;4.32;82.33;100782.47;5036407;28;20738;-80
2023/02/02 00:40:23;;;;;;;9.63;1.83;;;;;;;4.32;82.09;100797.97;5037630;28;20235;-80
2023/02/02 00:42:49;;;;;;;10.27;2.37;;;;;;;4.26;82.02;100812.50;5034854;28;20253;-78
2023/02/02 00:45:15;;;;;;;5.40;1.97;;;;;;;4.31;81.53;100813.44;5034560;28;20260;-80
2023/02/02 00:47:42;;;;;;;9.07;2.13;;;;;;;4.47;80.46;100835.19;5034653;28;20210;-79
2023/02/02 00:50:11;;;;;;;10.13;2.33;;;;;;;4.50;80.57;100869.69;5034407;28;20205;-79
2023/02/02 00:52:38;;;;;;;15.30;2.10;;;;;;;4.49;80.93;100855.03;5034366;28;20202;-79
2023/02/02 00:55:05;;;;;;;6.67;2.23;;;;;;;4.46;80.70;100864.44;5034367;28;20267;-80
2023/02/02 00:57:31;;;;;;;8.77;2.00;;;;;;;4.54;82.00;100855.97;5034746;28;20259;-79
2023/02/02 00:59:58;;;;;;;11.40;2.03;;;;;;;4.48;82.12;100855.88;5034062;28;20685;-80
2023/02/02 01:02:24;;;;;;;8.30;1.90;;;;;;;4.42;81.83;100811.88;5034363;28;20230;-79
2023/02/02 01:04:51;;;;;;;10.33;3.27;;;;;;;4.43;82.64;100831.69;5034382;28;20301;-79
2023/02/02 01:07:19;;;;;;;9.83;2.63;;;;;;;4.37;81.92;100829.88;5034362;28;20901;-80
2023/02/02 01:09:45;;;;;;;9.13;2.20;;;;;;;4.39;81.25;100853.19;5034165;28;20210;-79
2023/02/02 01:12:11;;;;;;;7.87;2.20;;;;;;;4.40;80.77;100848.88;5034466;28;20199;-80
2023/02/02 01:14:38;;;;;;;12.67;2.60;;;;;;;4.41;80.91;100868.72;5042526;28;20280;-79
2023/02/02 01:17:05;;;;;;;10.00;1.83;;;;;;;4.43;80.28;100875.63;5034312;28;20237;-79
2023/02/02 01:19:31;;;;;;;7.03;2.03;;;;;;;4.46;80.45;100901.53;5034019;28;20214;-78
2023/02/02 01:21:57;;;;;;;10.70;1.90;;;;;;;4.34;80.77;100894.47;5033946;28;20222;-79
2023/02/02 01:24:25;;;;;;;13.73;2.77;;;;;;;4.26;80.42;100888.34;5034191;28;20642;-79
2023/02/02 01:26:51;;;;;;;10.50;2.47;;;;;;;4.30;80.70;100895.28;5034089;28;20210;-78
2023/02/02 01:29:18;;;;;;;10.67;2.20;;;;;;;4.20;80.41;100898.56;5034291;28;20252;-80
2023/02/02 01:31:44;;;;;;;7.83;1.83;;;;;;;4.30;80.01;100903.03;5034108;28;20204;-80
2023/02/02 01:34:10;;;;;;;6.50;1.73;;;;;;;4.24;79.48;100923.63;5034235;28;20230;-79
2023/02/02 01:36:37;;;;;;;11.70;2.20;;;;;;;4.28;79.43;100940.91;5034593;28;20210;-79
2023/02/02 01:39:03;;;;;;;10.47;2.60;;;;;;;4.35;79.76;100941.84;5034472;28;20210;-79
2023/02/02 01:41:31;;;;;;;7.50;2.33;;;;;;;4.44;79.42;100944.59;5033277;28;20257;-79
2023/02/02 01:43:59;;;;;;;9.83;1.90;;;;;;;4.48;79.35;100959.28;5033608;28;20198;-78
2023/02/02 01:46:28;;;;;;;11.60;2.27;;;;;;;4.49;79.84;100942.06;5033796;28;20206;-79
2023/02/02 01:49:00;;;;;;;6.37;2.00;;;;;;;4.46;79.42;100966.16;5033508;28;20206;-79
2023/02/02 01:51:32;;;;;;;6.70;2.10;;;;;;;4.43;78.42;100965.22;5034006;28;20252;-80
2023/02/02 01:54:00;;;;;;;11.43;3.37;;;;;;;4.47;78.64;100998.03;5033806;28;20198;-80
2023/02/02 01:56:30;;;;;;;7.43;1.50;;;;;;;4.40;78.52;100991.91;5033912;28;20261;-79
2023/02/02 01:58:59;;;;;;;9.97;2.47;;;;;;;4.36;79.42;100974.59;5033811;28;20210;-81
2023/02/02 02:01:26;;;;;;;9.57;2.20;;;;;;;4.33;79.26;100959.91;5032947;28;20652;-80
2023/02/02 02:03:52;;;;;;;7.80;1.73;;;;;;;4.37;79.85;100951.34;5033658;28;20296;-78
2023/02/02 02:06:20;;;;;;;13.30;2.37;;;;;;;4.47;79.86;100965.28;5033763;28;20206;-79
2023/02/02 02:08:52;;;;;;;13.33;2.20;;;;;;;4.40;80.41;100958.31;5033656;28;20214;-79
2023/02/02 02:11:18;;;;;;;6.83;1.97;;;;;;;4.43;80.27;100926.47;5033425;28;20202;-79
2023/02/02 02:16:41;;;;;;;6.97;1.67;;;;;;;4.50;79.55;100960.19;5033127;28;20220;-79
2023/02/02 02:19:33;;;;;;;6.17;2.90;;;;;;;4.45;80.65;100948.03;5033661;28;20207;-80
2023/02/02 02:28:15;;;;;;;8.70;1.73;;;;;;;4.50;79.93;100923.97;5033299;28;20696;-80
2023/02/02 02:31:07;;;;;;;12.33;3.33;;;;;;;4.57;79.18;100948.19;5033198;28;20273;-79
2023/02/02 02:33:44;;;;;;;9.80;2.00;;;;;;;4.66;79.12;100981.06;5033233;28;20260;-79
2023/02/02 02:36:17;;;;;;;13.53;2.63;;;;;;;4.34;80.19;100972.00;5032940;28;20637;-78
2023/02/02 02:38:52;;;;;;;14.90;2.93;;;;;;;4.29;81.02;100940.03;5033038;28;20690;-79
2023/02/02 02:41:21;;;;;;;5.93;1.20;;;;;;;4.34;79.97;100946.16;5033132;28;20359;-80
2023/02/02 02:43:52;;;;;;;12.00;2.37;;;;;;;4.23;81.20;100952.88;5032844;28;20268;-80
2023/02/02 02:46:20;;;;;;;12.97;2.30;;;;;;;4.28;80.95;100945.19;5053149;28;20207;-78
2023/02/02 02:48:49;;;;;;;10.30;2.63;;;;;;;4.36;80.17;100949.63;5053131;28;20206;-79
2023/02/02 02:51:40;;;;;;;11.73;1.73;;;;;;;4.25;81.03;100932.22;5052433;28;20297;-79
2023/02/02 02:54:07;;;;;;;8.60;2.00;;;;;;;4.30;80.53;100941.78;5052229;28;20233;-79
2023/02/02 02:56:44;;;;;;;8.27;1.63;;;;;;;4.20;81.18;100936.44;5053408;28;20260;-79
2023/02/02 02:59:17;;;;;;;8.97;1.80;;;;;;;4.27;81.05;100925.38;5053376;28;20209;-79
2023/02/02 03:01:54;;;;;;;8.77;2.27;;;;;;;4.28;80.98;100951.25;5053150;28;20206;-80
2023/02/02 03:04:28;;;;;;;8.60;2.27;;;;;;;4.30;80.71;100953.81;5053411;28;20272;-79
2023/02/02 03:07:01;;;;;;;12.40;2.40;;;;;;;4.34;80.55;100958.19;5053714;28;20213;-79
2023/02/02 03:09:33;;;;;;;8.90;2.23;;;;;;;4.33;80.55;100959.91;5053383;28;20656;-80
2023/02/02 03:12:00;;;;;;;11.80;1.90;;;;;;;4.42;80.51;100966.97;5053141;28;20229;-79
2023/02/02 03:14:26;;;;;;;8.13;2.00;;;;;;;4.39;80.35;100969.47;5034054;28;20727;-79
2023/02/02 03:16:53;;;;;;;7.57;1.57;;;;;;;4.38;80.35;100958.28;5033955;28;20202;-80
2023/02/02 03:19:19;;;;;;;7.77;2.77;;;;;;;4.32;80.58;100963.34;5034124;28;20206;-80
2023/02/02 03:21:47;;;;;;;12.13;2.43;;;;;;;4.32;81.06;100945.28;5034038;28;20204;-80
2023/02/02 03:24:13;;;;;;;6.77;1.67;;;;;;;4.40;81.16;100947.06;5033824;28;20275;-79
2023/02/02 03:26:40;;;;;;;6.70;3.17;;;;;;;4.31;81.20;100940.06;5033392;28;20211;-81
2023/02/02 03:29:06;;;;;;;9.43;1.70;;;;;;;4.40;81.02;100947.06;5033676;28;20210;-79
2023/02/02 03:31:32;;;;;;;8.10;2.10;;;;;;;4.41;80.79;100949.69;5034132;28;20617;-80
2023/02/02 03:33:59;;;;;;;12.07;1.87;;;;;;;4.42;80.88;100960.88;5033935;28;20252;-79
2023/02/02 03:36:26;;;;;;;8.27;3.10;;;;;;;4.41;80.91;100964.34;5034036;28;20236;-80
2023/02/02 03:38:54;;;;;;;5.70;1.83;;;;;;;4.43;80.82;100958.34;5037264;28;20560;-79
2023/02/02 03:41:20;;;;;;;15.20;2.27;;;;;;;4.36;82.00;100948.75;5037445;28;20210;-79
2023/02/02 03:43:47;;;;;;;15.97;3.20;;;;;;;4.38;82.50;100935.03;5036762;28;20221;-80
2023/02/02 03:46:13;;;;;;;4.57;1.83;;;;;;;4.46;81.94;100924.78;5037470;28;20281;-79
2023/02/02 03:48:39;;;;;;;9.20;1.70;;;;;;;4.46;81.53;100940.31;5036581;28;20229;-79
2023/02/02 03:51:07;;;;;;;10.03;1.70;;;;;;;4.49;81.94;100931.72;5036210;28;20633;-79
2023/02/02 03:53:34;;;;;;;9.90;2.23;;;;;;;4.57;81.37;100958.53;5036478;28;20248;-78
2023/02/02 03:56:01;;;;;;;10.03;2.13;;;;;;;4.44;81.36;100967.84;5032221;28;20288;-79
2023/02/02 03:58:28;;;;;;;14.10;2.70;;;;;;;4.30;82.62;100939.22;5032318;28;20210;-79
2023/02/02 04:00:54;;;;;;;10.97;2.03;;;;;;;4.31;83.10;100914.22;5032072;28;20669;-79
2023/02/02 04:03:21;;;;;;;11.63;2.67;;;;;;;4.23;83.30;100908.94;5032223;28;20282;-80
2023/02/02 04:05:49;;;;;;;12.10;1.73;;;;;;;4.19;84.62;100889.09;5037813;28;20266;-79
2023/02/02 04:08:16;;;;;;;11.60;2.20;;;;;;;4.24;85.18;100863.28;5036075;28;20206;-79
2023/02/02 04:10:42;;;;;;;9.50;1.73;;;;;;;4.20;85.77;100840.84;5035720;28;20348;-79
2023/02/02 04:13:10;;;;;;;5.97;1.93;;;;;;;4.11;86.30;100823.53;5036493;28;20214;-79
2023/02/02 04:15:36;;;;;;;14.53;3.10;;;;;;;4.12;87.02;100796.81;5035916;28;20236;-79
2023/02/02 04:18:02;;;;;;;12.07;2.30;;;;;;;4.19;87.20;100780.56;5036123;28;20756;-79
2023/02/02 04:20:29;;;;;;;13.63;3.80;;;;;;;4.17;87.11;100775.38;5034933;28;20206;-79
2023/02/02 04:22:55;;;;;;;10.13;3.13;;;;;;;4.17;87.87;100759.88;5035829;28;20229;-79
2023/02/02 04:25:21;;;;;;;8.67;2.07;;;;;;;4.23;88.00;100753.91;5036202;28;20646;-78
2023/02/02 04:27:48;;;;;;;7.37;1.97;;;;;;;4.27;87.88;100760.00;5035472;28;20206;-80
2023/02/02 04:30:16;;;;;;;12.33;2.87;;;;;;;4.28;87.87;100752.28;5035642;28;20206;-79
2023/02/02 04:32:42;;;;;;;5.33;1.87;;;;;;;4.30;87.87;100748.00;5035404;28;20202;-80
2023/02/02 04:35:09;;;;;;;7.27;2.33;;;;;;;4.49;86.95;100763.69;5035287;28;20287;-79
2023/02/02 04:37:35;;;;;;;10.00;2.50;;;;;;;4.43;87.69;100781.72;5035592;28;20260;-79
2023/02/02 04:40:01;;;;;;;8.47;2.40;;;;;;;4.42;87.66;100783.44;5035432;28;20633;-80
2023/02/02 04:42:30;;;;;;;14.57;2.33;;;;;;;4.44;87.76;100786.91;5035587;28;20214;-79
2023/02/02 04:44:57;;;;;;;9.17;2.90;;;;;;;4.37;88.61;100778.19;5034930;28;20672;-79
2023/02/02 04:47:24;;;;;;;14.80;3.77;;;;;;;4.37;88.33;100760.09;5035103;28;20641;-78
2023/02/02 04:49:51;;;;;;;12.40;2.13;;;;;;;4.36;88.33;100773.00;5039893;28;20236;-80
2023/02/02 04:52:17;;;;;;;12.17;2.27;;;;;;;4.37;88.69;100754.94;5043145;28;20233;-79
2023/02/02 04:54:43;;;;;;;11.03;2.47;;;;;;;4.43;88.06;100766.22;5034920;28;20235;-79
2023/02/02 04:57:10;;;;;;;8.37;2.33;;;;;;;4.27;89.22;100757.41;5034963;28;20210;-79
2023/02/02 04:59:36;;;;;;;11.30;1.70;;;;;;;4.32;88.96;100761.78;5034799;28;20206;-78
2023/02/02 05:02:03;;;;;;;14.70;1.77;;;;;;;4.23;88.47;100769.41;5034714;28;20218;-79
2023/02/02 05:04:30;;;;;;;10.23;2.07;;;;;;;4.23;88.84;100761.66;5034804;28;20226;-79
2023/02/02 05:06:58;;;;;;;11.10;2.00;;;;;;;4.27;88.87;100755.69;5035056;28;20212;-78
2023/02/02 05:09:24;;;;;;;10.63;2.30;;;;;;;4.18;89.10;100763.31;5034783;28;20263;-79
2023/02/02 05:11:50;;;;;;;12.67;2.27;;;;;;;4.26;89.13;100760.84;5035127;28;20202;-79
2023/02/02 05:14:17;;;;;;;12.77;2.37;;;;;;;4.24;89.27;100750.50;5034555;28;20279;-79
2023/02/02 05:16:43;;;;;;;9.97;2.40;;;;;;;4.24;89.46;100754.78;5033663;28;20568;-79
2023/02/02 05:19:11;;;;;;;10.37;2.40;;;;;;;4.30;88.76;100767.75;5034518;28;20252;-79
2023/02/02 05:21:39;;;;;;;10.93;2.37;;;;;;;4.27;89.10;100770.34;5034400;28;20258;-79
2023/02/02 05:24:06;;;;;;;15.23;3.37;;;;;;;4.21;89.12;100772.84;5052790;28;20365;-78
2023/02/02 05:26:32;;;;;;;12.83;3.00;;;;;;;4.16;89.75;100776.25;5054999;28;20201;-78
2023/02/02 05:28:58;;;;;;;15.00;3.20;;;;;;;4.26;89.51;100763.41;5054760;28;20646;-78
2023/02/02 05:31:24;;;;;;;6.80;1.97;;;;;;;4.30;88.92;100776.41;5054401;28;20237;-79
2023/02/02 05:33:51;;;;;;;9.73;2.43;;;;;;;4.36;88.47;100796.25;5054637;28;20209;-79
2023/02/02 05:36:18;;;;;;;12.87;2.50;;;;;;;4.26;88.36;100800.47;5055186;28;20647;-79
2023/02/02 05:38:45;;;;;;;13.40;2.10;;;;;;;4.24;88.38;100796.13;5054584;28;20217;-80
2023/02/02 05:41:12;;;;;;;11.17;3.63;;;;;;;4.34;88.56;100809.19;5054054;28;20258;-79
2023/02/02 05:43:38;;;;;;;9.70;2.07;;;;;;;4.32;87.67;100807.41;5041774;28;20222;-79
2023/02/02 05:46:05;;;;;;;10.53;3.03;;;;;;;4.30;87.89;100820.34;5034348;28;20227;-79
2023/02/02 05:48:31;;;;;;;9.40;2.17;;;;;;;4.31;87.93;100826.38;5034987;28;20211;-80
2023/02/02 05:51:02;;;;;;;14.07;2.10;;;;;;;4.43;88.14;100831.69;5042533;28;20205;-79
2023/02/02 05:53:30;;;;;;;10.07;2.80;;;;;;;4.21;88.49;100843.47;5054733;28;20209;-79
2023/02/02 05:55:57;;;;;;;15.53;2.27;;;;;;;4.26;88.54;100831.50;5064105;22;20258;-81
2023/02/02 05:58:24;;;;;;;12.43;2.20;;;;;;;4.22;89.16;100819.34;5037543;28;20256;-82
2023/02/02 06:00:51;;;;;;;14.83;2.90;;;;;;;4.24;88.89;100815.09;5036729;28;20297;-82
2023/02/02 06:03:17;;;;;;;11.33;2.23;;;;;;;4.12;89.50;100825.25;5054722;28;20222;-81
2023/02/02 06:05:44;;;;;;;10.03;1.87;;;;;;;4.11;90.11;100803.72;5055688;28;20271;-81
2023/02/02 06:08:10;;;;;;;10.73;2.03;;;;;;;4.08;90.33;100792.47;5056899;28;20212;-81
2023/02/02 06:10:38;;;;;;;11.23;2.27;;;;;;;4.09;90.61;100782.16;5056761;28;20629;-81
2023/02/02 06:13:06;;;;;;;11.93;2.40;;;;;;;4.13;91.02;100775.31;5056716;28;20579;-82
2023/02/02 06:15:33;;;;;;;7.33;2.23;;;;;;;4.06;90.94;100786.41;5056081;28;20294;-81
2023/02/02 06:18:00;;;;;;;15.33;2.57;;;;;;;3.98;91.57;100763.06;5053879;28;20840;-80
2023/02/02 06:20:27;;;;;;;8.67;2.27;;;;;;;3.94;92.48;100758.72;5036273;28;20218;-82
2023/02/02 06:22:53;;;;;;;17.07;3.20;;;;;;;3.94;92.47;100746.69;5036295;28;20203;-81
2023/02/02 06:25:19;;;;;;;13.17;2.13;;;;;;;3.91;92.90;100736.31;5036623;28;20230;-82
2023/02/02 06:27:48;;;;;;;12.63;3.17;;;;;;;3.89;92.85;100739.72;5036461;28;20256;-80
2023/02/02 06:30:16;;;;;;;7.87;1.87;;;;;;;3.87;93.25;100726.78;5037025;28;20296;-79
2023/02/02 06:32:42;;;;;;;10.10;2.17;;;;;;;3.89;93.28;100730.25;5036803;28;20202;-80
2023/02/02 06:35:09;;;;;;;10.97;2.53;;;;;;;3.93;93.23;100732.03;5037069;28;20226;-80
2023/02/02 06:37:37;;;;;;;13.77;2.50;;;;;;;4.06;92.47;100751.13;5036050;28;20292;-82
2023/02/02 06:40:05;;;;;;;13.83;2.43;;;;;;;4.01;92.07;100759.69;5036606;28;20218;-82
2023/02/02 06:42:31;;;;;;;8.00;2.37;;;;;;;4.06;91.63;100782.09;5036446;28;20269;-80
2023/02/02 06:44:58;;;;;;;13.20;2.27;;;;;;;4.07;91.60;100788.16;5036262;28;20229;-80
2023/02/02 06:47:25;;;;;;;13.93;2.37;;;;;;;3.90;92.58;100783.63;5036696;28;20233;-80
2023/02/02 06:49:52;;;;;;;12.43;2.53;;;;;;;3.87;93.30;100767.25;5036785;28;20213;-80
2023/02/02 06:52:18;;;;;;;12.97;2.73;;;;;;;3.75;94.20;100745.56;5037455;28;20544;-81
2023/02/02 06:54:44;;;;;;;15.00;2.77;;;;;;;3.85;94.41;100731.06;5036416;28;20231;-80
2023/02/02 06:57:11;;;;;;;8.70;3.10;;;;;;;3.92;94.13;100735.44;5036283;28;20653;-81
2023/02/02 06:59:39;;;;;;;9.27;2.53;;;;;;;3.99;93.48;100746.75;5036881;28;20206;-80
2023/02/02 07:02:06;;;;;;;9.50;2.37;;;;;;;3.91;94.28;100749.22;5035769;28;20212;-81
2023/02/02 07:04:33;;;;;;;13.33;2.30;;;;;;;3.86;94.57;100735.34;5035351;28;20231;-81
2023/02/02 07:07:00;;;;;;;7.93;2.40;;;;;;;3.85;94.85;100736.22;5035664;28;20206;-81
2023/02/02 07:09:26;;;;;;;8.80;2.20;;;;;;;3.91;94.72;100738.88;5035146;28;20280;-83
2023/02/02 07:11:52;;;;;;;12.70;2.90;;;;;;;4.01;94.01;100750.19;5037193;28;20211;-81
2023/02/02 07:14:19;;;;;;;18.27;2.97;;;;;;;4.08;93.50;100752.00;5037099;28;20202;-81
2023/02/02 07:16:45;;;;;;;14.87;2.70;;;;;;;4.17;93.27;100769.34;5035426;28;20256;-81
2023/02/02 07:19:11;;;;;;;14.67;2.87;;;;;;;4.28;93.26;100784.97;5035146;28;20236;-80
2023/02/02 07:21:39;;;;;;;13.33;2.90;;;;;;;4.31;93.07;100785.03;5037396;28;20206;-81
2023/02/02 07:24:06;;;;;;;10.73;2.70;;;;;;;4.38;93.34;100785.13;5035270;28;20288;-80
2023/02/02 07:26:34;;;;;;;13.23;2.40;;;;;;;4.39;93.23;100796.31;5037129;28;20268;-81
2023/02/02 07:29:00;;;;;;;14.07;2.53;;;;;;;4.36;93.70;100791.09;5035727;28;20214;-82
2023/02/02 07:31:27;;;;;;;10.90;2.40;;;;;;;4.35;93.83;100786.78;5038054;28;20233;-81
2023/02/02 07:33:54;;;;;;;11.37;2.67;;;;;;;4.36;94.08;100776.47;5037100;28;20203;-81
2023/02/02 07:36:23;;;;;;;8.97;2.40;;;;;;;4.40;94.41;100779.97;5036757;28;20292;-80
2023/02/02 07:38:53;;;;;;;6.47;2.33;;;;;;;4.44;94.29;100775.69;5035098;28;20277;-81
2023/02/02 07:41:20;;;;;;;13.60;2.97;;;;;;;4.45;94.73;100778.28;5029225;28;20299;-81
2023/02/02 07:43:47;;;;;;;8.87;2.43;;;;;;;4.37;94.81;100775.63;5031788;28;20220;-80
2023/02/02 07:46:14;;;;;;;7.70;2.37;;;;;;;4.39;94.81;100773.06;5030157;28;20252;-82
2023/02/02 07:48:40;;;;;;;8.97;2.03;;;;;;;4.43;94.99;100767.06;5031749;28;20198;-83
2023/02/02 07:51:08;;;;;;;8.90;2.27;;;;;;;4.45;95.14;100762.78;5028872;28;20265;-82
2023/02/02 07:53:35;;;;;;;9.80;2.77;;;;;;;4.51;94.75;100764.56;5026246;28;20293;-83
2023/02/02 07:56:07;;;;;;;10.33;3.20;;;;;;;4.45;95.46;100761.94;5026347;28;20253;-80
2023/02/02 07:58:34;;;;;;;8.50;2.03;;;;;;;4.49;95.25;100768.88;5026804;28;20205;-81
2023/02/02 08:01:01;;;;;;;9.40;2.50;;;;;;;4.55;94.86;100756.00;5027479;28;20199;-79
2023/02/02 08:03:28;;;;;;;17.17;3.13;;;;;;;4.65;94.92;100770.75;5030023;28;20277;-83
2023/02/02 08:05:54;;;;;;;19.07;3.27;;;;;;;4.69;94.57;100782.84;5029023;28;20269;-82
2023/02/02 08:08:21;;;;;;;16.47;3.10;;;;;;;4.75;94.13;100787.22;5027939;28;20226;-81
2023/02/02 08:10:48;;;;;;;12.20;2.90;;;;;;;4.79;94.42;100809.69;5029621;28;20264;-81
2023/02/02 08:13:15;;;;;;;15.10;3.10;;;;;;;4.70;94.52;100815.63;5025135;28;20257;-78
2023/02/02 08:15:42;;;;;;;7.27;2.27;;;;;;;4.73;94.62;100813.06;5022989;28;20282;-80
2023/02/02 08:18:08;;;;;;;11.07;2.33;;;;;;;4.80;94.69;100815.72;5026085;28;20247;-82
2023/02/02 08:20:34;;;;;;;17.63;2.80;;;;;;;4.85;93.55;100822.69;5039860;28;20213;-81
2023/02/02 08:23:01;;;;;;;14.27;2.93;;;;;;;4.89;93.08;100842.56;5040487;28;20260;-81
2023/02/02 08:25:27;;;;;;;14.47;2.50;;;;;;;4.98;93.56;100858.19;5039544;28;20239;-79
2023/02/02 08:27:54;;;;;;;9.80;2.80;;;;;;;4.91;92.99;100868.44;5041465;28;20221;-80
2023/02/02 08:30:21;;;;;;;12.73;3.13;;;;;;;5.00;92.77;100880.63;5038345;28;20217;-81
2023/02/02 08:32:48;;;;;;;9.80;2.70;;;;;;;5.01;93.09;100895.28;5039005;28;20207;-80
2023/02/02 08:35:14;;;;;;;10.23;2.70;;;;;;;5.11;92.40;100897.13;5040474;28;20221;-81
2023/02/02 08:37:40;;;;;;;13.43;2.43;;;;;;;5.13;91.24;100919.59;5040128;28;20942;-80
2023/02/02 08:40:08;;;;;;;15.80;3.27;;;;;;;5.11;91.06;100941.09;5039862;28;20555;-79
2023/02/02 08:42:35;;;;;;;13.90;2.10;;;;;;;5.12;90.67;100955.78;5039950;28;20214;-79
2023/02/02 08:45:01;;;;;;;10.40;2.13;;;;;;;5.15;90.55;100974.81;5039735;28;20233;-80
2023/02/02 08:47:30;;;;;;;6.07;2.20;;;;;;;5.12;90.66;100985.13;5039420;28;20247;-81
2023/02/02 08:49:56;;;;;;;11.93;2.50;;;;;;;5.12;89.59;101002.38;5037900;28;20202;-81
2023/02/02 08:52:22;;;;;;;5.17;1.50;;;;;;;5.06;90.27;101000.56;5038754;28;20206;-80
2023/02/02 08:54:49;;;;;;;4.00;1.50;;;;;;;5.02;89.81;101008.28;5038619;28;20238;-81
2023/02/02 08:57:16;;;;;;;7.67;2.13;;;;;;;5.06;88.66;101023.00;5037751;28;20673;-80
2023/02/02 08:59:42;;;;;;;5.30;1.80;;;;;;;5.12;88.02;101043.78;5037585;28;20434;-79
2023/02/02 09:02:09;;;;;;;7.17;2.30;;;;;;;5.22;88.12;101052.53;5037454;28;20239;-81
2023/02/02 09:04:36;;;;;;;6.80;1.53;;;;;;;5.14;88.80;101065.38;5037293;28;20229;-81
2023/02/02 09:07:03;;;;;;;5.53;2.10;;;;;;;5.03;88.15;101077.28;5036374;28;20213;-81
2023/02/02 09:09:29;;;;;;;8.33;1.60;;;;;;;4.98;88.89;101082.41;5037045;28;20739;-80
2023/02/02 09:11:55;;;;;;;10.67;1.60;;;;;;;5.03;89.14;101056.56;5036310;28;20207;-79
2023/02/02 09:14:21;;;;;;;13.53;2.40;;;;;;;5.09;88.86;101070.47;5035938;28;20586;-80
2023/02/02 09:16:48;;;;;;;11.13;1.67;;;;;;;5.00;88.40;101075.53;5036422;28;20263;-82
2023/02/02 09:19:14;;;;;;;7.77;1.80;;;;;;;5.04;88.76;101071.28;5036945;28;20207;-80
2023/02/02 09:21:42;;;;;;;11.40;1.53;;;;;;;4.99;88.06;101078.94;5035477;28;20695;-81
2023/02/02 09:24:09;;;;;;;10.73;1.90;;;;;;;5.07;88.86;101072.16;5035476;28;20230;-80
2023/02/02 09:26:37;;;;;;;7.00;1.63;;;;;;;5.11;87.76;101099.84;5037028;28;20213;-81
2023/02/02 09:29:07;;;;;;;8.30;3.40;;;;;;;5.12;88.15;101111.91;5036338;28;20215;-80
2023/02/02 09:31:35;;;;;;;7.83;1.70;;;;;;;5.18;87.84;101098.19;5035807;28;20214;-81
2023/02/02 09:34:02;;;;;;;6.40;2.07;;;;;;;5.12;87.95;101116.22;5036651;28;20216;-80
2023/02/02 09:36:29;;;;;;;5.97;1.73;;;;;;;5.09;90.00;101082.53;5035844;28;20226;-80
2023/02/02 09:38:57;;;;;;;5.23;1.30;;;;;;;5.06;90.27;101064.41;5036508;28;20195;-80
2023/02/02 09:41:54;;;;;;;8.17;1.60;;;;;;;5.17;88.89;101083.50;5035181;28;20275;-81
2023/02/02 09:44:34;;;;;;;6.80;2.03;;;;;;;5.13;89.67;101081.72;5056029;28;20236;-81
2023/02/02 09:47:10;;;;;;;5.30;1.30;;;;;;;5.04;89.51;101068.69;5055566;28;20416;-79
2023/02/02 09:49:46;;;;;;;6.07;1.40;;;;;;;5.10;89.70;101076.53;5039329;28;20208;-80
2023/02/02 09:52:16;;;;;;;7.03;1.70;;;;;;;5.24;89.07;101074.13;5053387;28;20209;-80
2023/02/02 09:54:46;;;;;;;10.05;2.30;;;;;;;5.30;88.09;101100.09;5055819;28;20436;-81
2023/02/02 09:57:17;;;;;;;8.27;1.57;;;;;;;5.36;88.67;101107.94;5055434;28;20742;-81
2023/02/02 09:59:46;;;;;;;5.60;1.30;;;;;;;5.40;88.80;101108.84;5055935;28;20208;-82
2023/02/02 10:02:18;;;;;;;9.17;2.33;;;;;;;5.40;88.83;101111.44;5055863;28;20209;-81
2023/02/02 10:04:49;;;;;;;9.47;2.73;;;;;;;5.34;89.46;101101.88;5055881;28;20230;-80
2023/02/02 10:07:18;;;;;;;6.30;1.50;;;;;;;5.37;88.69;101115.72;5055962;28;20212;-80
2023/02/02 10:09:50;;;;;;;9.47;2.20;;;;;;;5.59;88.75;101110.81;5055521;28;20226;-81
2023/02/02 10:12:25;;;;;;;7.27;2.13;;;;;;;5.71;89.12;101125.66;5055278;28;20278;-82
2023/02/02 10:14:57;;;;;;;7.63;1.53;;;;;;;5.48;87.68;101143.47;5055572;28;20273;-80
2023/02/02 10:17:35;;;;;;;12.87;2.90;;;;;;;5.53;88.23;101153.03;5055726;28;20258;-79
2023/02/02 10:20:14;;;;;;;8.37;1.60;;;;;;;5.58;87.72;101156.53;5035764;28;20209;-80
2023/02/02 10:22:41;;;;;;;7.47;1.43;;;;;;;5.64;88.14;101147.13;5035466;28;20578;-81
2023/02/02 10:25:12;;;;;;;9.73;2.00;;;;;;;5.74;88.09;101167.09;5035321;28;20671;-81
2023/02/02 10:27:40;;;;;;;10.67;1.50;;;;;;;5.62;87.54;101178.19;5035626;28;20200;-79
2023/02/02 10:30:16;;;;;;;9.40;1.70;;;;;;;5.71;86.41;101196.44;5034534;28;20671;-82
2023/02/02 10:32:49;;;;;;;4.10;1.47;;;;;;;5.79;86.17;101196.53;5035550;28;20199;-80
2023/02/02 10:35:33;;;;;;;11.20;2.60;;;;;;;5.85;86.87;101217.34;5033936;28;21031;-81
2023/02/02 10:38:07;;;;;;;14.43;2.20;;;;;;;5.81;85.91;101236.28;5036242;28;20198;-81
2023/02/02 10:40:45;;;;;;;7.57;1.47;;;;;;;5.92;85.42;101250.25;5036499;28;20240;-79
2023/02/02 10:43:46;;;;;;;3.97;1.37;;;;;;;5.87;85.51;101251.91;5038933;28;20205;-79
2023/02/02 10:46:15;;;;;;;4.63;1.30;;;;;;;5.70;86.57;101243.91;5038545;28;20243;-80
2023/02/02 10:48:45;;;;;;;5.60;1.17;;;;;;;5.70;85.99;101233.53;5038367;28;20258;-80
2023/02/02 10:51:19;;;;;;;4.50;1.80;;;;;;;5.67;86.12;101262.00;5037752;28;20257;-80
2023/02/02 10:53:52;;;;;;;8.50;1.63;;;;;;;5.69;85.19;101262.91;5038372;28;20214;-80
2023/02/02 10:56:24;;;;;;;10.30;2.10;;;;;;;5.64;85.31;101277.47;5037462;28;20239;-80
2023/02/02 10:58:59;;;;;;;6.27;1.47;;;;;;;5.83;86.08;101264.78;5035711;28;20270;-80
2023/02/02 11:01:25;;;;;;;6.63;1.83;;;;;;;5.99;84.99;101258.16;5035430;28;20743;-81
2023/02/02 11:06:48;;;;;;;6.00;1.33;;;;;;;6.07;85.95;101257.38;5035914;28;20330;-81
2023/02/02 11:06:50;;;;;;;6.83;1.07;;;;;;;5.74;84.20;101300.06;5036347;28;20207;-81
2023/02/02 11:09:21;;;;;;;7.60;1.80;;;;;;;5.86;85.74;101270.03;5024142;28;20626;-80
2023/02/02 11:11:52;;;;;;;4.93;1.70;;;;;;;5.77;84.95;101286.31;5024604;28;20219;-81
2023/02/02 11:14:24;;;;;;;18.80;3.17;;;;;;;6.02;85.24;101289.28;5033706;28;20258;-80
2023/02/02 11:17:01;;;;;;;4.10;1.70;;;;;;;6.03;85.90;101296.22;5035580;28;20211;-81
2023/02/02 11:19:29;;;;;;;7.37;1.57;;;;;;;5.97;85.08;101300.44;5035920;28;20661;-81
2023/02/02 11:21:58;;;;;;;17.17;2.10;;;;;;;5.90;84.78;101311.53;5035113;28;20232;-80
2023/02/02 11:24:27;;;;;;;8.30;1.73;;;;;;;5.99;84.92;101302.22;5033952;28;20212;-80
2023/02/02 11:26:57;;;;;;;6.23;1.90;;;;;;;6.05;85.01;101320.44;5034930;28;20208;-80
2023/02/02 11:29:29;;;;;;;6.23;1.90;;;;;;;6.19;84.62;101311.09;5034219;28;20206;-78
2023/02/02 11:31:55;;;;;;;5.30;1.60;;;;;;;6.21;84.51;101304.22;5033587;28;20217;-81
2023/02/02 11:34:24;;;;;;;12.20;2.30;;;;;;;6.42;84.29;101324.38;5033199;28;20426;-78
2023/02/02 11:37:11;;;;;;;5.10;1.60;;;;;;;6.49;84.11;101336.56;5014826;28;20252;-80
2023/02/02 11:39:38;;;;;;;14.17;1.87;;;;;;;6.48;83.35;101357.28;5016888;28;20238;-80
2023/02/02 11:42:08;;;;;;;8.68;2.25;;;;;;;6.41;83.37;101371.91;5033129;28;20993;-80
2023/02/02 11:44:35;;;;;;;7.47;1.80;;;;;;;6.45;84.27;101352.94;5031535;28;20278;-81